sensor_id;sensor_type;location;lat;lon;timestamp;P1;durP1;ratioP1;P2;durP2;ratioP2
48268;SDS011;34088;52.232;5.196;2022-08-19T00:01:27;7.63;;;6.93;;
48268;SDS011;34088;52.232;5.196;2022-08-19T00:03:56;8.02;;;7.22;;
48268;SDS011;34088;52.232;5.196;2022-08-19T00:06:22;7.65;;;6.95;;
48268;SDS011;34088;52.232;5.196;2022-08-19T00:08:48;7.63;;;6.93;;
48268;SDS011;34088;52.232;5.196;2022-08-19T00:11:16;7.50;;;6.60;;
48268;SDS011;34088;52.232;5.196;2022-08-19T00:13:42;7.47;;;6.13;;
48268;SDS011;34088;52.232;5.196;2022-08-19T00:16:08;7.75;;;6.38;;
48268;SDS011;34088;52.232;5.196;2022-08-19T00:18:34;8.73;;;6.00;;
48268;SDS011;34088;52.232;5.196;2022-08-19T00:21:00;6.95;;;6.25;;
48268;SDS011;34088;52.232;5.196;2022-08-19T00:23:27;8.10;;;7.20;;
48268;SDS011;34088;52.232;5.196;2022-08-19T00:25:53;9.95;;;8.63;;
48268;SDS011;34088;52.232;5.196;2022-08-19T00:28:19;11.43;;;8.82;;
48268;SDS011;34088;52.232;5.196;2022-08-19T00:30:45;9.63;;;7.78;;
48268;SDS011;34088;52.232;5.196;2022-08-19T00:33:11;8.90;;;8.02;;
48268;SDS011;34088;52.232;5.196;2022-08-19T00:35:38;9.88;;;8.00;;
48268;SDS011;34088;52.232;5.196;2022-08-19T00:38:04;9.20;;;7.13;;
48268;SDS011;34088;52.232;5.196;2022-08-19T00:40:32;8.25;;;7.45;;
48268;SDS011;34088;52.232;5.196;2022-08-19T00:42:58;8.20;;;7.30;;
48268;SDS011;34088;52.232;5.196;2022-08-19T00:45:25;7.63;;;6.88;;
48268;SDS011;34088;52.232;5.196;2022-08-19T00:47:53;9.00;;;7.30;;
48268;SDS011;34088;52.232;5.196;2022-08-19T00:50:19;8.80;;;7.50;;
48268;SDS011;34088;52.232;5.196;2022-08-19T00:52:47;7.72;;;6.93;;
48268;SDS011;34088;52.232;5.196;2022-08-19T00:55:25;7.90;;;7.10;;
48268;SDS011;34088;52.232;5.196;2022-08-19T00:58:01;8.02;;;6.53;;
48268;SDS011;34088;52.232;5.196;2022-08-19T01:00:32;7.20;;;6.45;;
48268;SDS011;34088;52.232;5.196;2022-08-19T01:03:06;9.50;;;6.82;;
48268;SDS011;34088;52.232;5.196;2022-08-19T01:05:34;8.68;;;7.63;;
48268;SDS011;34088;52.232;5.196;2022-08-19T01:08:01;7.95;;;7.18;;
48268;SDS011;34088;52.232;5.196;2022-08-19T01:10:30;9.90;;;8.13;;
48268;SDS011;34088;52.232;5.196;2022-08-19T01:12:58;8.77;;;7.90;;
48268;SDS011;34088;52.232;5.196;2022-08-19T01:15:29;8.73;;;7.82;;
48268;SDS011;34088;52.232;5.196;2022-08-19T01:18:07;9.82;;;8.18;;
48268;SDS011;34088;52.232;5.196;2022-08-19T01:20:35;8.75;;;7.82;;
48268;SDS011;34088;52.232;5.196;2022-08-19T01:23:02;9.98;;;7.55;;
48268;SDS011;34088;52.232;5.196;2022-08-19T01:25:32;8.20;;;7.35;;
48268;SDS011;34088;52.232;5.196;2022-08-19T01:28:06;9.05;;;7.65;;
48268;SDS011;34088;52.232;5.196;2022-08-19T01:30:33;10.65;;;7.28;;
48268;SDS011;34088;52.232;5.196;2022-08-19T01:33:01;8.95;;;7.55;;
48268;SDS011;34088;52.232;5.196;2022-08-19T01:35:30;8.23;;;7.35;;
48268;SDS011;34088;52.232;5.196;2022-08-19T01:37:59;7.70;;;6.90;;
48268;SDS011;34088;52.232;5.196;2022-08-19T01:40:29;7.93;;;7.10;;
48268;SDS011;34088;52.232;5.196;2022-08-19T01:42:56;7.47;;;6.78;;
48268;SDS011;34088;52.232;5.196;2022-08-19T01:45:24;7.50;;;6.80;;
48268;SDS011;34088;52.232;5.196;2022-08-19T01:47:53;7.57;;;6.88;;
48268;SDS011;34088;52.232;5.196;2022-08-19T01:50:19;8.32;;;7.03;;
48268;SDS011;34088;52.232;5.196;2022-08-19T01:52:46;9.57;;;6.95;;
48268;SDS011;34088;52.232;5.196;2022-08-19T01:55:14;7.43;;;5.82;;
48268;SDS011;34088;52.232;5.196;2022-08-19T01:57:44;7.22;;;6.53;;
48268;SDS011;34088;52.232;5.196;2022-08-19T02:00:17;6.55;;;5.85;;
48268;SDS011;34088;52.232;5.196;2022-08-19T02:02:45;7.60;;;6.15;;
48268;SDS011;34088;52.232;5.196;2022-08-19T02:05:11;6.57;;;5.90;;
48268;SDS011;34088;52.232;5.196;2022-08-19T02:07:38;7.05;;;6.35;;
48268;SDS011;34088;52.232;5.196;2022-08-19T02:10:07;7.15;;;6.28;;
48268;SDS011;34088;52.232;5.196;2022-08-19T02:12:35;8.63;;;6.00;;
48268;SDS011;34088;52.232;5.196;2022-08-19T02:15:02;6.53;;;5.93;;
48268;SDS011;34088;52.232;5.196;2022-08-19T02:17:29;9.48;;;6.57;;
48268;SDS011;34088;52.232;5.196;2022-08-19T02:19:56;7.03;;;5.97;;
48268;SDS011;34088;52.232;5.196;2022-08-19T02:22:22;7.30;;;6.05;;
48268;SDS011;34088;52.232;5.196;2022-08-19T02:24:50;7.10;;;5.72;;
48268;SDS011;34088;52.232;5.196;2022-08-19T02:27:17;8.18;;;6.28;;
48268;SDS011;34088;52.232;5.196;2022-08-19T02:29:43;5.97;;;5.38;;
48268;SDS011;34088;52.232;5.196;2022-08-19T02:32:11;8.55;;;7.20;;
48268;SDS011;34088;52.232;5.196;2022-08-19T02:34:38;7.85;;;7.10;;
48268;SDS011;34088;52.232;5.196;2022-08-19T02:37:04;9.88;;;6.88;;
48268;SDS011;34088;52.232;5.196;2022-08-19T02:42:17;8.10;;;7.20;;
48268;SDS011;34088;52.232;5.196;2022-08-19T02:44:43;9.32;;;6.80;;
48268;SDS011;34088;52.232;5.196;2022-08-19T02:47:09;7.72;;;7.03;;
48268;SDS011;34088;52.232;5.196;2022-08-19T02:49:35;8.07;;;7.28;;
48268;SDS011;34088;52.232;5.196;2022-08-19T02:52:02;8.57;;;7.00;;
48268;SDS011;34088;52.232;5.196;2022-08-19T02:54:28;8.70;;;7.53;;
48268;SDS011;34088;52.232;5.196;2022-08-19T02:56:54;8.52;;;7.65;;
48268;SDS011;34088;52.232;5.196;2022-08-19T02:59:20;8.15;;;7.38;;
48268;SDS011;34088;52.232;5.196;2022-08-19T03:01:46;9.63;;;7.72;;
48268;SDS011;34088;52.232;5.196;2022-08-19T03:04:13;9.00;;;8.02;;
48268;SDS011;34088;52.232;5.196;2022-08-19T03:06:43;8.63;;;7.82;;
48268;SDS011;34088;52.232;5.196;2022-08-19T03:09:10;9.35;;;8.30;;
48268;SDS011;34088;52.232;5.196;2022-08-19T03:11:37;11.02;;;8.13;;
48268;SDS011;34088;52.232;5.196;2022-08-19T03:14:04;8.43;;;7.63;;
48268;SDS011;34088;52.232;5.196;2022-08-19T03:16:34;8.40;;;7.50;;
48268;SDS011;34088;52.232;5.196;2022-08-19T03:19:06;8.90;;;7.17;;
48268;SDS011;34088;52.232;5.196;2022-08-19T03:21:32;7.70;;;6.97;;
48268;SDS011;34088;52.232;5.196;2022-08-19T03:24:00;7.68;;;6.65;;
48268;SDS011;34088;52.232;5.196;2022-08-19T03:26:28;8.25;;;6.60;;
48268;SDS011;34088;52.232;5.196;2022-08-19T03:28:55;9.05;;;6.82;;
48268;SDS011;34088;52.232;5.196;2022-08-19T03:31:21;7.57;;;5.78;;
48268;SDS011;34088;52.232;5.196;2022-08-19T03:33:48;7.15;;;6.45;;
48268;SDS011;34088;52.232;5.196;2022-08-19T03:36:16;10.27;;;7.63;;
48268;SDS011;34088;52.232;5.196;2022-08-19T03:38:46;9.10;;;7.60;;
48268;SDS011;34088;52.232;5.196;2022-08-19T03:41:14;9.18;;;7.60;;
48268;SDS011;34088;52.232;5.196;2022-08-19T03:43:42;10.30;;;7.63;;
48268;SDS011;34088;52.232;5.196;2022-08-19T03:46:13;13.88;;;8.93;;
48268;SDS011;34088;52.232;5.196;2022-08-19T03:48:41;11.88;;;8.88;;
48268;SDS011;34088;52.232;5.196;2022-08-19T03:51:14;11.55;;;9.15;;
48268;SDS011;34088;52.232;5.196;2022-08-19T03:53:42;14.32;;;10.32;;
48268;SDS011;34088;52.232;5.196;2022-08-19T03:56:09;10.90;;;8.80;;
48268;SDS011;34088;52.232;5.196;2022-08-19T03:58:35;12.02;;;10.73;;
48268;SDS011;34088;52.232;5.196;2022-08-19T04:01:02;11.52;;;9.38;;
48268;SDS011;34088;52.232;5.196;2022-08-19T04:03:31;11.60;;;9.73;;
48268;SDS011;34088;52.232;5.196;2022-08-19T04:05:57;10.93;;;9.20;;
48268;SDS011;34088;52.232;5.196;2022-08-19T04:08:23;12.45;;;9.88;;
48268;SDS011;34088;52.232;5.196;2022-08-19T04:10:50;13.65;;;10.85;;
48268;SDS011;34088;52.232;5.196;2022-08-19T04:13:16;13.95;;;9.93;;
48268;SDS011;34088;52.232;5.196;2022-08-19T04:15:43;12.48;;;10.13;;
48268;SDS011;34088;52.232;5.196;2022-08-19T04:18:11;12.65;;;10.00;;
48268;SDS011;34088;52.232;5.196;2022-08-19T04:20:44;14.43;;;10.63;;
48268;SDS011;34088;52.232;5.196;2022-08-19T04:23:12;15.05;;;10.88;;
48268;SDS011;34088;52.232;5.196;2022-08-19T04:25:39;11.98;;;9.85;;
48268;SDS011;34088;52.232;5.196;2022-08-19T04:28:07;11.15;;;9.00;;
48268;SDS011;34088;52.232;5.196;2022-08-19T04:30:45;15.63;;;10.93;;
48268;SDS011;34088;52.232;5.196;2022-08-19T04:33:13;12.13;;;8.98;;
48268;SDS011;34088;52.232;5.196;2022-08-19T04:35:41;15.10;;;8.63;;
48268;SDS011;34088;52.232;5.196;2022-08-19T04:38:10;10.63;;;8.63;;
48268;SDS011;34088;52.232;5.196;2022-08-19T04:40:47;10.38;;;8.80;;
48268;SDS011;34088;52.232;5.196;2022-08-19T04:43:32;12.77;;;10.23;;
48268;SDS011;34088;52.232;5.196;2022-08-19T04:46:10;11.70;;;9.48;;
48268;SDS011;34088;52.232;5.196;2022-08-19T04:48:37;11.10;;;8.68;;
48268;SDS011;34088;52.232;5.196;2022-08-19T04:51:08;12.43;;;9.68;;
48268;SDS011;34088;52.232;5.196;2022-08-19T04:53:36;12.50;;;9.38;;
48268;SDS011;34088;52.232;5.196;2022-08-19T04:56:10;12.00;;;9.27;;
48268;SDS011;34088;52.232;5.196;2022-08-19T04:58:38;15.40;;;11.23;;
48268;SDS011;34088;52.232;5.196;2022-08-19T05:01:07;14.48;;;11.43;;
48268;SDS011;34088;52.232;5.196;2022-08-19T05:03:35;13.43;;;10.93;;
48268;SDS011;34088;52.232;5.196;2022-08-19T05:06:05;14.75;;;11.13;;
48268;SDS011;34088;52.232;5.196;2022-08-19T05:08:33;14.75;;;11.40;;
48268;SDS011;34088;52.232;5.196;2022-08-19T05:11:01;17.45;;;12.68;;
48268;SDS011;34088;52.232;5.196;2022-08-19T05:13:32;18.33;;;14.40;;
48268;SDS011;34088;52.232;5.196;2022-08-19T05:15:58;17.60;;;12.55;;
48268;SDS011;34088;52.232;5.196;2022-08-19T05:18:25;20.50;;;14.10;;
48268;SDS011;34088;52.232;5.196;2022-08-19T05:21:13;25.35;;;17.98;;
48268;SDS011;34088;52.232;5.196;2022-08-19T05:23:59;25.80;;;18.25;;
48268;SDS011;34088;52.232;5.196;2022-08-19T05:26:26;29.75;;;20.13;;
48268;SDS011;34088;52.232;5.196;2022-08-19T05:28:52;30.98;;;20.65;;
48268;SDS011;34088;52.232;5.196;2022-08-19T05:31:19;31.45;;;20.70;;
48268;SDS011;34088;52.232;5.196;2022-08-19T05:33:45;30.42;;;20.73;;
48268;SDS011;34088;52.232;5.196;2022-08-19T05:36:11;33.08;;;21.45;;
48268;SDS011;34088;52.232;5.196;2022-08-19T05:38:38;34.47;;;22.45;;
48268;SDS011;34088;52.232;5.196;2022-08-19T05:41:11;51.47;;;29.65;;
48268;SDS011;34088;52.232;5.196;2022-08-19T05:43:38;53.00;;;31.92;;
48268;SDS011;34088;52.232;5.196;2022-08-19T05:46:05;56.83;;;33.85;;
48268;SDS011;34088;52.232;5.196;2022-08-19T05:48:35;58.53;;;35.85;;
48268;SDS011;34088;52.232;5.196;2022-08-19T05:51:05;73.22;;;39.85;;
48268;SDS011;34088;52.232;5.196;2022-08-19T05:53:31;72.65;;;39.88;;
48268;SDS011;34088;52.232;5.196;2022-08-19T05:56:03;75.15;;;40.15;;
48268;SDS011;34088;52.232;5.196;2022-08-19T05:58:30;84.97;;;42.92;;
48268;SDS011;34088;52.232;5.196;2022-08-19T06:00:57;78.97;;;42.42;;
48268;SDS011;34088;52.232;5.196;2022-08-19T06:03:29;83.07;;;42.38;;
48268;SDS011;34088;52.232;5.196;2022-08-19T06:05:55;78.88;;;43.10;;
48268;SDS011;34088;52.232;5.196;2022-08-19T06:08:24;80.78;;;44.95;;
48268;SDS011;34088;52.232;5.196;2022-08-19T06:10:53;75.30;;;41.97;;
48268;SDS011;34088;52.232;5.196;2022-08-19T06:13:19;88.68;;;45.03;;
48268;SDS011;34088;52.232;5.196;2022-08-19T06:15:46;78.45;;;42.63;;
48268;SDS011;34088;52.232;5.196;2022-08-19T06:18:12;81.65;;;45.67;;
48268;SDS011;34088;52.232;5.196;2022-08-19T06:20:39;79.82;;;42.88;;
48268;SDS011;34088;52.232;5.196;2022-08-19T06:23:06;95.05;;;45.78;;
48268;SDS011;34088;52.232;5.196;2022-08-19T06:25:32;93.60;;;45.88;;
48268;SDS011;34088;52.232;5.196;2022-08-19T06:27:58;92.82;;;45.97;;
48268;SDS011;34088;52.232;5.196;2022-08-19T06:30:24;88.18;;;45.85;;
48268;SDS011;34088;52.232;5.196;2022-08-19T06:32:50;92.65;;;46.28;;
48268;SDS011;34088;52.232;5.196;2022-08-19T06:35:16;93.35;;;46.75;;
48268;SDS011;34088;52.232;5.196;2022-08-19T06:37:42;95.95;;;46.72;;
48268;SDS011;34088;52.232;5.196;2022-08-19T06:40:09;98.53;;;47.00;;
48268;SDS011;34088;52.232;5.196;2022-08-19T06:42:37;103.53;;;47.47;;
48268;SDS011;34088;52.232;5.196;2022-08-19T06:45:04;91.18;;;44.60;;
48268;SDS011;34088;52.232;5.196;2022-08-19T06:47:31;94.30;;;45.45;;
48268;SDS011;34088;52.232;5.196;2022-08-19T07:02:29;107.22;;;49.53;;
48268;SDS011;34088;52.232;5.196;2022-08-19T07:04:55;116.32;;;53.38;;
48268;SDS011;34088;52.232;5.196;2022-08-19T07:07:27;110.28;;;49.33;;
48268;SDS011;34088;52.232;5.196;2022-08-19T07:09:53;108.85;;;50.60;;
48268;SDS011;34088;52.232;5.196;2022-08-19T07:12:20;113.97;;;51.60;;
48268;SDS011;34088;52.232;5.196;2022-08-19T07:14:46;114.72;;;51.47;;
48268;SDS011;34088;52.232;5.196;2022-08-19T07:17:13;116.97;;;53.97;;
48268;SDS011;34088;52.232;5.196;2022-08-19T07:19:40;115.97;;;52.60;;
48268;SDS011;34088;52.232;5.196;2022-08-19T07:22:07;120.18;;;54.70;;
48268;SDS011;34088;52.232;5.196;2022-08-19T07:24:34;121.28;;;54.90;;
48268;SDS011;34088;52.232;5.196;2022-08-19T07:27:03;114.93;;;53.42;;
48268;SDS011;34088;52.232;5.196;2022-08-19T07:29:32;120.32;;;57.28;;
48268;SDS011;34088;52.232;5.196;2022-08-19T07:32:00;111.78;;;53.65;;
48268;SDS011;34088;52.232;5.196;2022-08-19T07:34:27;108.88;;;52.85;;
48268;SDS011;34088;52.232;5.196;2022-08-19T07:36:55;115.07;;;56.63;;
48268;SDS011;34088;52.232;5.196;2022-08-19T07:39:22;111.00;;;54.40;;
48268;SDS011;34088;52.232;5.196;2022-08-19T07:41:50;110.97;;;52.95;;
48268;SDS011;34088;52.232;5.196;2022-08-19T07:44:17;102.53;;;52.15;;
48268;SDS011;34088;52.232;5.196;2022-08-19T07:46:46;105.90;;;54.17;;
48268;SDS011;34088;52.232;5.196;2022-08-19T07:49:13;110.68;;;55.40;;
48268;SDS011;34088;52.232;5.196;2022-08-19T07:51:58;103.57;;;54.47;;
48268;SDS011;34088;52.232;5.196;2022-08-19T07:54:27;102.22;;;56.05;;
48268;SDS011;34088;52.232;5.196;2022-08-19T07:56:55;101.22;;;55.10;;
48268;SDS011;34088;52.232;5.196;2022-08-19T07:59:22;104.55;;;56.60;;
48268;SDS011;34088;52.232;5.196;2022-08-19T08:01:49;97.05;;;52.72;;
48268;SDS011;34088;52.232;5.196;2022-08-19T08:04:16;99.20;;;55.65;;
48268;SDS011;34088;52.232;5.196;2022-08-19T08:07:02;90.45;;;51.50;;
48268;SDS011;34088;52.232;5.196;2022-08-19T08:09:47;91.75;;;53.13;;
48268;SDS011;34088;52.232;5.196;2022-08-19T08:12:25;88.78;;;50.28;;
48268;SDS011;34088;52.232;5.196;2022-08-19T08:14:56;90.85;;;51.25;;
48268;SDS011;34088;52.232;5.196;2022-08-19T08:17:25;88.60;;;52.78;;
48268;SDS011;34088;52.232;5.196;2022-08-19T08:19:53;91.97;;;53.35;;
48268;SDS011;34088;52.232;5.196;2022-08-19T08:22:19;86.40;;;51.70;;
48268;SDS011;34088;52.232;5.196;2022-08-19T08:25:06;80.68;;;49.28;;
48268;SDS011;34088;52.232;5.196;2022-08-19T08:27:38;81.28;;;49.45;;
48268;SDS011;34088;52.232;5.196;2022-08-19T08:30:12;84.85;;;49.97;;
48268;SDS011;34088;52.232;5.196;2022-08-19T08:32:40;86.90;;;50.58;;
48268;SDS011;34088;52.232;5.196;2022-08-19T08:35:07;87.90;;;51.08;;
48268;SDS011;34088;52.232;5.196;2022-08-19T08:37:35;92.13;;;53.00;;
48268;SDS011;34088;52.232;5.196;2022-08-19T08:40:05;92.20;;;53.20;;
48268;SDS011;34088;52.232;5.196;2022-08-19T08:43:19;90.13;;;54.15;;
48268;SDS011;34088;52.232;5.196;2022-08-19T08:45:43;86.15;;;51.67;;
48268;SDS011;34088;52.232;5.196;2022-08-19T08:48:19;86.68;;;51.97;;
48268;SDS011;34088;52.232;5.196;2022-08-19T08:50:49;83.93;;;52.20;;
48268;SDS011;34088;52.232;5.196;2022-08-19T08:53:17;84.15;;;51.75;;
48268;SDS011;34088;52.232;5.196;2022-08-19T08:55:44;81.60;;;51.25;;
48268;SDS011;34088;52.232;5.196;2022-08-19T08:58:16;76.55;;;51.10;;
48268;SDS011;34088;52.232;5.196;2022-08-19T09:00:47;73.85;;;49.40;;
48268;SDS011;34088;52.232;5.196;2022-08-19T09:03:17;76.55;;;49.25;;
48268;SDS011;34088;52.232;5.196;2022-08-19T09:11:04;67.15;;;44.05;;
48268;SDS011;34088;52.232;5.196;2022-08-19T09:13:36;64.95;;;45.47;;
48268;SDS011;34088;52.232;5.196;2022-08-19T09:16:20;70.25;;;47.38;;
48268;SDS011;34088;52.232;5.196;2022-08-19T09:18:54;68.20;;;45.88;;
48268;SDS011;34088;52.232;5.196;2022-08-19T09:21:22;64.22;;;45.78;;
48268;SDS011;34088;52.232;5.196;2022-08-19T09:23:50;61.63;;;44.17;;
48268;SDS011;34088;52.232;5.196;2022-08-19T09:26:17;63.65;;;42.28;;
48268;SDS011;34088;52.232;5.196;2022-08-19T09:28:45;60.85;;;43.35;;
48268;SDS011;34088;52.232;5.196;2022-08-19T09:31:13;59.65;;;42.33;;
48268;SDS011;34088;52.232;5.196;2022-08-19T09:33:41;65.55;;;44.35;;
48268;SDS011;34088;52.232;5.196;2022-08-19T09:36:13;62.33;;;43.88;;
48268;SDS011;34088;52.232;5.196;2022-08-19T09:38:40;58.28;;;42.70;;
48268;SDS011;34088;52.232;5.196;2022-08-19T09:41:07;56.40;;;41.60;;
48268;SDS011;34088;52.232;5.196;2022-08-19T09:43:38;53.67;;;42.78;;
48268;SDS011;34088;52.232;5.196;2022-08-19T09:46:05;57.70;;;40.97;;
48268;SDS011;34088;52.232;5.196;2022-08-19T09:48:33;48.50;;;36.55;;
48268;SDS011;34088;52.232;5.196;2022-08-19T09:51:07;50.75;;;35.83;;
48268;SDS011;34088;52.232;5.196;2022-08-19T09:53:35;49.05;;;37.33;;
48268;SDS011;34088;52.232;5.196;2022-08-19T09:56:02;48.63;;;34.83;;
48268;SDS011;34088;52.232;5.196;2022-08-19T09:58:29;51.13;;;35.55;;
48268;SDS011;34088;52.232;5.196;2022-08-19T10:00:56;46.22;;;37.00;;
48268;SDS011;34088;52.232;5.196;2022-08-19T10:03:23;50.75;;;36.90;;
48268;SDS011;34088;52.232;5.196;2022-08-19T10:05:50;49.20;;;36.47;;
48268;SDS011;34088;52.232;5.196;2022-08-19T10:08:17;44.60;;;35.80;;
48268;SDS011;34088;52.232;5.196;2022-08-19T10:10:45;47.03;;;34.45;;
48268;SDS011;34088;52.232;5.196;2022-08-19T10:13:11;44.33;;;35.63;;
48268;SDS011;34088;52.232;5.196;2022-08-19T10:15:38;39.17;;;32.58;;
48268;SDS011;34088;52.232;5.196;2022-08-19T10:18:05;41.38;;;31.50;;
48268;SDS011;34088;52.232;5.196;2022-08-19T10:20:32;38.50;;;32.35;;
48268;SDS011;34088;52.232;5.196;2022-08-19T10:22:59;42.72;;;32.05;;
48268;SDS011;34088;52.232;5.196;2022-08-19T10:25:25;40.45;;;31.65;;
48268;SDS011;34088;52.232;5.196;2022-08-19T10:27:52;43.08;;;31.27;;
48268;SDS011;34088;52.232;5.196;2022-08-19T10:30:18;37.97;;;31.40;;
48268;SDS011;34088;52.232;5.196;2022-08-19T10:32:44;41.78;;;30.70;;
48268;SDS011;34088;52.232;5.196;2022-08-19T10:35:11;35.83;;;29.83;;
48268;SDS011;34088;52.232;5.196;2022-08-19T10:37:37;38.25;;;30.77;;
48268;SDS011;34088;52.232;5.196;2022-08-19T10:40:05;39.72;;;29.75;;
48268;SDS011;34088;52.232;5.196;2022-08-19T10:42:32;35.58;;;28.45;;
48268;SDS011;34088;52.232;5.196;2022-08-19T10:44:59;37.72;;;28.55;;
48268;SDS011;34088;52.232;5.196;2022-08-19T10:47:26;36.00;;;26.73;;
48268;SDS011;34088;52.232;5.196;2022-08-19T10:49:52;33.58;;;25.23;;
48268;SDS011;34088;52.232;5.196;2022-08-19T10:52:42;33.28;;;25.75;;
48268;SDS011;34088;52.232;5.196;2022-08-19T10:55:11;33.75;;;25.95;;
48268;SDS011;34088;52.232;5.196;2022-08-19T10:57:55;33.85;;;25.25;;
48268;SDS011;34088;52.232;5.196;2022-08-19T11:00:22;37.17;;;27.13;;
48268;SDS011;34088;52.232;5.196;2022-08-19T11:02:49;29.50;;;25.02;;
48268;SDS011;34088;52.232;5.196;2022-08-19T11:05:15;31.80;;;26.92;;
48268;SDS011;34088;52.232;5.196;2022-08-19T11:07:42;35.58;;;24.50;;
48268;SDS011;34088;52.232;5.196;2022-08-19T11:10:10;28.65;;;25.02;;
48268;SDS011;34088;52.232;5.196;2022-08-19T11:12:38;27.27;;;20.67;;
48268;SDS011;34088;52.232;5.196;2022-08-19T11:15:05;29.13;;;23.48;;
48268;SDS011;34088;52.232;5.196;2022-08-19T11:17:33;26.15;;;21.23;;
48268;SDS011;34088;52.232;5.196;2022-08-19T11:20:00;29.63;;;23.95;;
48268;SDS011;34088;52.232;5.196;2022-08-19T11:22:29;20.88;;;14.35;;
48268;SDS011;34088;52.232;5.196;2022-08-19T11:24:55;20.23;;;12.82;;
48268;SDS011;34088;52.232;5.196;2022-08-19T11:29:48;13.55;;;9.98;;
48268;SDS011;34088;52.232;5.196;2022-08-19T11:34:40;22.00;;;13.93;;
48268;SDS011;34088;52.232;5.196;2022-08-19T11:37:06;19.13;;;14.45;;
48268;SDS011;34088;52.232;5.196;2022-08-19T11:39:33;18.30;;;14.70;;
48268;SDS011;34088;52.232;5.196;2022-08-19T11:42:02;20.77;;;15.05;;
48268;SDS011;34088;52.232;5.196;2022-08-19T11:44:49;23.15;;;16.65;;
48268;SDS011;34088;52.232;5.196;2022-08-19T11:47:15;25.02;;;17.52;;
48268;SDS011;34088;52.232;5.196;2022-08-19T11:49:41;24.90;;;17.50;;
48268;SDS011;34088;52.232;5.196;2022-08-19T11:52:08;24.30;;;17.27;;
48268;SDS011;34088;52.232;5.196;2022-08-19T11:54:34;25.58;;;17.55;;
48268;SDS011;34088;52.232;5.196;2022-08-19T11:57:01;27.30;;;19.38;;
48268;SDS011;34088;52.232;5.196;2022-08-19T11:59:28;24.10;;;20.35;;
48268;SDS011;34088;52.232;5.196;2022-08-19T12:01:54;30.75;;;23.27;;
48268;SDS011;34088;52.232;5.196;2022-08-19T12:04:21;31.52;;;24.30;;
48268;SDS011;34088;52.232;5.196;2022-08-19T12:06:47;33.17;;;25.23;;
48268;SDS011;34088;52.232;5.196;2022-08-19T12:09:15;30.52;;;26.67;;
48268;SDS011;34088;52.232;5.196;2022-08-19T12:11:42;34.15;;;27.58;;
48268;SDS011;34088;52.232;5.196;2022-08-19T12:14:12;26.98;;;24.00;;
48268;SDS011;34088;52.232;5.196;2022-08-19T12:16:39;29.50;;;23.63;;
48268;SDS011;34088;52.232;5.196;2022-08-19T12:19:07;28.42;;;23.52;;
48268;SDS011;34088;52.232;5.196;2022-08-19T12:21:34;29.98;;;23.85;;
48268;SDS011;34088;52.232;5.196;2022-08-19T12:24:01;28.92;;;22.95;;
48268;SDS011;34088;52.232;5.196;2022-08-19T12:26:29;33.20;;;24.00;;
48268;SDS011;34088;52.232;5.196;2022-08-19T12:28:56;23.38;;;19.27;;
48268;SDS011;34088;52.232;5.196;2022-08-19T12:31:24;17.08;;;15.15;;
48268;SDS011;34088;52.232;5.196;2022-08-19T12:33:51;22.98;;;17.15;;
48268;SDS011;34088;52.232;5.196;2022-08-19T12:36:17;23.48;;;16.75;;
48268;SDS011;34088;52.232;5.196;2022-08-19T12:38:43;20.45;;;16.38;;
48268;SDS011;34088;52.232;5.196;2022-08-19T12:41:10;23.73;;;17.95;;
48268;SDS011;34088;52.232;5.196;2022-08-19T12:43:38;20.88;;;16.83;;
48268;SDS011;34088;52.232;5.196;2022-08-19T12:46:04;18.38;;;13.65;;
48268;SDS011;34088;52.232;5.196;2022-08-19T12:48:31;17.25;;;12.38;;
48268;SDS011;34088;52.232;5.196;2022-08-19T12:50:58;17.63;;;12.05;;
48268;SDS011;34088;52.232;5.196;2022-08-19T12:53:24;15.93;;;10.95;;
48268;SDS011;34088;52.232;5.196;2022-08-19T12:55:59;18.08;;;11.63;;
48268;SDS011;34088;52.232;5.196;2022-08-19T12:58:26;15.32;;;10.65;;
48268;SDS011;34088;52.232;5.196;2022-08-19T13:00:53;15.38;;;9.90;;
48268;SDS011;34088;52.232;5.196;2022-08-19T13:03:19;13.25;;;8.60;;
48268;SDS011;34088;52.232;5.196;2022-08-19T13:05:47;12.68;;;8.60;;
48268;SDS011;34088;52.232;5.196;2022-08-19T13:08:15;12.00;;;8.43;;
48268;SDS011;34088;52.232;5.196;2022-08-19T13:10:41;12.10;;;8.60;;
48268;SDS011;34088;52.232;5.196;2022-08-19T13:13:09;11.57;;;8.52;;
48268;SDS011;34088;52.232;5.196;2022-08-19T13:15:36;14.15;;;8.60;;
48268;SDS011;34088;52.232;5.196;2022-08-19T13:18:08;15.75;;;8.80;;
48268;SDS011;34088;52.232;5.196;2022-08-19T13:20:36;13.63;;;8.45;;
48268;SDS011;34088;52.232;5.196;2022-08-19T13:23:03;15.57;;;8.50;;
48268;SDS011;34088;52.232;5.196;2022-08-19T13:25:30;11.20;;;7.63;;
48268;SDS011;34088;52.232;5.196;2022-08-19T13:27:56;10.27;;;7.30;;
48268;SDS011;34088;52.232;5.196;2022-08-19T13:30:22;13.68;;;7.63;;
48268;SDS011;34088;52.232;5.196;2022-08-19T13:33:07;10.95;;;7.68;;
48268;SDS011;34088;52.232;5.196;2022-08-19T13:35:47;10.48;;;7.40;;
48268;SDS011;34088;52.232;5.196;2022-08-19T13:38:19;10.77;;;8.15;;
48268;SDS011;34088;52.232;5.196;2022-08-19T13:40:45;11.75;;;7.72;;
48268;SDS011;34088;52.232;5.196;2022-08-19T13:43:12;12.82;;;8.23;;
48268;SDS011;34088;52.232;5.196;2022-08-19T13:45:39;11.10;;;6.75;;
48268;SDS011;34088;52.232;5.196;2022-08-19T13:48:05;14.07;;;6.90;;
48268;SDS011;34088;52.232;5.196;2022-08-19T13:50:33;11.60;;;7.32;;
48268;SDS011;34088;52.232;5.196;2022-08-19T13:53:05;10.98;;;7.05;;
48268;SDS011;34088;52.232;5.196;2022-08-19T13:55:31;10.70;;;7.20;;
48268;SDS011;34088;52.232;5.196;2022-08-19T13:57:58;9.38;;;6.43;;
48268;SDS011;34088;52.232;5.196;2022-08-19T14:00:26;9.32;;;6.15;;
48268;SDS011;34088;52.232;5.196;2022-08-19T14:02:54;6.70;;;5.78;;
48268;SDS011;34088;52.232;5.196;2022-08-19T14:05:21;8.95;;;5.30;;
48268;SDS011;34088;52.232;5.196;2022-08-19T14:07:48;6.97;;;4.85;;
48268;SDS011;34088;52.232;5.196;2022-08-19T14:10:15;8.50;;;4.00;;
48268;SDS011;34088;52.232;5.196;2022-08-19T14:12:41;6.55;;;4.22;;
48268;SDS011;34088;52.232;5.196;2022-08-19T14:15:08;6.05;;;3.75;;
48268;SDS011;34088;52.232;5.196;2022-08-19T14:17:39;6.07;;;3.53;;
48268;SDS011;34088;52.232;5.196;2022-08-19T14:20:07;8.20;;;4.05;;
48268;SDS011;34088;52.232;5.196;2022-08-19T14:22:35;5.47;;;3.72;;
48268;SDS011;34088;52.232;5.196;2022-08-19T14:25:03;7.40;;;3.33;;
48268;SDS011;34088;52.232;5.196;2022-08-19T14:27:32;6.22;;;4.28;;
48268;SDS011;34088;52.232;5.196;2022-08-19T14:29:59;6.40;;;3.58;;
48268;SDS011;34088;52.232;5.196;2022-08-19T14:32:25;4.18;;;3.20;;
48268;SDS011;34088;52.232;5.196;2022-08-19T14:34:52;4.93;;;3.60;;
48268;SDS011;34088;52.232;5.196;2022-08-19T14:37:19;7.13;;;3.85;;
48268;SDS011;34088;52.232;5.196;2022-08-19T14:39:47;6.53;;;3.90;;
48268;SDS011;34088;52.232;5.196;2022-08-19T14:42:13;6.70;;;4.00;;
48268;SDS011;34088;52.232;5.196;2022-08-19T14:44:40;5.85;;;3.78;;
48268;SDS011;34088;52.232;5.196;2022-08-19T14:47:06;6.80;;;3.60;;
48268;SDS011;34088;52.232;5.196;2022-08-19T14:49:33;5.45;;;3.50;;
48268;SDS011;34088;52.232;5.196;2022-08-19T14:52:00;4.85;;;3.17;;
48268;SDS011;34088;52.232;5.196;2022-08-19T14:54:28;8.48;;;3.45;;
48268;SDS011;34088;52.232;5.196;2022-08-19T14:56:54;7.90;;;4.47;;
48268;SDS011;34088;52.232;5.196;2022-08-19T14:59:20;4.60;;;2.97;;
48268;SDS011;34088;52.232;5.196;2022-08-19T15:01:46;6.20;;;3.50;;
48268;SDS011;34088;52.232;5.196;2022-08-19T15:04:12;6.32;;;3.70;;